Time;durP1;ratioP1;P1;durP2;ratioP2;P2;SDS_P1;SDS_P2;PMS_P1;PMS_P2;Temp;Humidity;BMP_temperature;BMP_pressure;BME280_temperature;BME280_humidity;BME280_pressure;Samples;Min_cycle;Max_cycle;Signal;HPM_P1;HPM_P2
2024/04/07 00:00:23;;;;;;;5.47;2.88;;;14.60;99.90;14.60;100465.00;;;;4989661;27;83288;-65
2024/04/07 00:02:50;;;;;;;3.70;3.30;;;14.60;99.90;14.50;100464.00;;;;4988056;27;83796;-65
2024/04/07 00:05:16;;;;;;;3.70;3.35;;;14.50;99.90;14.40;100457.00;;;;4988189;27;84777;-65
2024/04/07 00:07:42;;;;;;;3.97;3.20;;;14.40;99.90;14.30;100454.00;;;;4986255;27;82782;-65
2024/04/07 00:10:08;;;;;;;4.95;2.97;;;14.40;99.90;14.30;100462.00;;;;4986935;27;83002;-65
2024/04/07 00:12:37;;;;;;;2.53;2.25;;;14.30;99.90;14.20;100452.00;;;;4985821;27;83926;-65
2024/04/07 00:15:07;;;;;;;3.80;2.28;;;14.30;99.90;14.20;100450.00;;;;4984624;27;83757;-65
2024/04/07 00:17:33;;;;;;;3.80;2.03;;;14.20;99.90;14.20;100447.00;;;;4986468;27;82695;-65
2024/04/07 00:20:00;;;;;;;1.70;1.58;;;14.20;99.90;14.20;100437.00;;;;4985487;27;82308;-66
2024/04/07 00:22:26;;;;;;;2.53;1.60;;;14.20;99.90;14.10;100445.00;;;;4967767;27;84515;-65
2024/04/07 00:24:52;;;;;;;1.35;1.23;;;14.20;99.90;14.20;100442.00;;;;4985927;27;107032;-65
2024/04/07 00:27:21;;;;;;;2.55;1.60;;;14.20;99.90;14.20;100444.00;;;;4978607;27;83893;-64
2024/04/07 00:29:47;;;;;;;1.60;1.40;;;14.20;99.90;14.20;100448.00;;;;4985831;27;82813;-65
2024/04/07 00:32:13;;;;;;;2.80;1.70;;;14.20;99.90;14.30;100444.00;;;;4968057;28;85346;-65
2024/04/07 00:34:39;;;;;;;3.95;2.20;;;14.30;99.90;14.30;100458.00;;;;4984346;28;84175;-65
2024/04/07 00:37:05;;;;;;;2.35;2.15;;;14.30;99.90;14.30;100450.00;;;;4985645;27;83049;-65
2024/04/07 00:39:31;;;;;;;6.20;2.85;;;14.30;99.90;14.20;100449.00;;;;4986271;27;95571;-65
2024/04/07 00:41:57;;;;;;;2.47;2.28;;;14.20;99.90;14.10;100450.00;;;;4988182;27;83049;-65
2024/04/07 00:44:23;;;;;;;5.60;2.80;;;14.20;99.90;14.00;100454.00;;;;4986862;27;83197;-64
2024/04/07 00:46:49;;;;;;;4.15;2.40;;;14.10;99.90;14.00;100457.00;;;;4988156;27;98498;-65
2024/04/07 00:49:16;;;;;;;13.05;2.88;;;14.00;99.90;13.90;100447.00;;;;4985290;27;82687;-65
2024/04/07 00:51:42;;;;;;;4.03;2.33;;;13.90;99.90;13.80;100450.00;;;;4989084;27;113305;-65
2024/04/07 00:54:09;;;;;;;3.00;2.38;;;13.90;99.90;13.70;100443.00;;;;4987566;27;90228;-65
2024/04/07 00:56:35;;;;;;;2.95;2.30;;;13.80;99.90;13.70;100439.00;;;;4986058;27;110165;-65
2024/04/07 00:59:06;;;;;;;3.13;2.58;;;13.70;99.90;13.60;100441.00;;;;4987874;27;108823;-65
2024/04/07 01:01:32;;;;;;;4.00;2.43;;;13.70;99.90;13.60;100446.00;;;;4988488;27;83557;-65
2024/04/07 01:03:58;;;;;;;2.50;2.30;;;13.60;99.90;13.50;100432.00;;;;4986837;27;83629;-65
2024/04/07 01:06:24;;;;;;;2.42;2.03;;;13.60;99.90;13.50;100444.00;;;;4987294;27;96766;-65
2024/04/07 01:08:51;;;;;;;11.57;2.53;;;13.50;99.90;13.40;100443.00;;;;4987443;27;103200;-65
2024/04/07 01:11:17;;;;;;;5.80;3.05;;;13.50;99.90;13.40;100437.00;;;;4982200;27;107275;-65
2024/04/07 01:13:42;;;;;;;2.60;2.30;;;13.40;99.90;13.30;100436.00;;;;4990050;27;85682;-66
2024/04/07 01:16:08;;;;;;;4.07;2.70;;;13.40;99.90;13.30;100435.00;;;;4987540;27;110187;-68
2024/04/07 01:18:34;;;;;;;4.75;2.15;;;13.30;99.90;13.20;100436.00;;;;4984627;27;107939;-65
2024/04/07 01:20:59;;;;;;;4.07;2.43;;;13.30;99.90;13.10;100439.00;;;;4987302;27;111748;-66
2024/04/07 01:23:25;;;;;;;2.50;1.97;;;13.20;99.90;13.10;100435.00;;;;4987978;27;82831;-65
2024/04/07 01:25:51;;;;;;;4.97;2.03;;;13.20;99.90;13.00;100428.00;;;;4986568;27;110004;-65
2024/04/07 01:28:16;;;;;;;2.40;2.13;;;13.10;99.90;13.00;100433.00;;;;4981215;27;109152;-67
2024/04/07 01:30:42;;;;;;;2.60;2.37;;;13.00;99.90;12.90;100426.00;;;;4985587;27;113656;-66
2024/04/07 01:33:08;;;;;;;2.03;1.70;;;13.00;99.90;12.80;100428.00;;;;4986857;27;111447;-67
2024/04/07 01:35:34;;;;;;;3.53;2.63;;;12.90;99.90;12.80;100413.00;;;;4987145;27;111054;-66
2024/04/07 01:38:00;;;;;;;4.03;2.33;;;12.90;99.90;12.80;100420.00;;;;4976826;27;83963;-67
2024/04/07 01:40:26;;;;;;;1.77;1.60;;;12.80;99.90;12.80;100412.00;;;;4970147;27;84058;-66
2024/04/07 01:42:51;;;;;;;4.83;1.90;;;12.80;99.90;12.70;100411.00;;;;4988469;27;113795;-67
2024/04/07 01:45:21;;;;;;;2.07;1.90;;;12.70;99.90;12.70;100408.00;;;;4977965;27;82670;-66
2024/04/07 01:47:46;;;;;;;4.87;2.10;;;12.80;99.90;12.60;100403.00;;;;4986854;27;83195;-65
2024/04/07 01:50:12;;;;;;;6.93;2.00;;;12.70;99.90;12.60;100410.00;;;;4987696;27;112631;-65
2024/04/07 01:52:38;;;;;;;4.80;2.40;;;12.70;99.90;12.60;100404.00;;;;4987424;27;83875;-65
2024/04/07 01:55:04;;;;;;;3.23;2.10;;;12.60;99.90;12.60;100410.00;;;;4985096;27;110090;-65
2024/04/07 01:57:30;;;;;;;1.97;1.87;;;12.60;99.90;12.50;100407.00;;;;4988739;27;82429;-65
2024/04/07 01:59:56;;;;;;;3.27;2.13;;;12.60;99.90;12.50;100392.00;;;;4990087;27;83873;-64
2024/04/07 02:02:22;;;;;;;3.13;2.27;;;12.60;99.90;12.40;100395.00;;;;4978770;27;112812;-65
2024/04/07 02:04:49;;;;;;;1.73;1.63;;;12.50;99.90;12.40;100395.00;;;;4989870;27;83992;-65
2024/04/07 02:07:17;;;;;;;2.57;1.93;;;12.50;99.90;12.40;100387.00;;;;4982894;27;108372;-65
2024/04/07 02:09:43;;;;;;;2.50;1.33;;;12.40;99.90;12.40;100391.00;;;;4987063;27;83929;-65
2024/04/07 02:12:08;;;;;;;5.73;2.50;;;12.40;99.90;12.30;100393.00;;;;4970080;27;112824;-65
2024/04/07 02:14:34;;;;;;;2.43;2.23;;;12.40;99.90;12.30;100394.00;;;;4985365;27;108698;-64
2024/04/07 02:17:02;;;;;;;3.40;2.07;;;12.40;99.90;12.30;100381.00;;;;4988264;27;82915;-65
2024/04/07 02:19:27;;;;;;;2.87;2.07;;;12.40;99.90;12.30;100379.00;;;;4989844;27;84287;-64
2024/04/07 02:21:53;;;;;;;2.57;2.17;;;12.30;99.90;12.30;100376.00;;;;4987862;27;113182;-65
2024/04/07 02:24:19;;;;;;;2.13;1.60;;;12.30;99.90;12.30;100363.00;;;;4984755;27;109538;-65
2024/04/07 02:26:46;;;;;;;2.90;1.63;;;12.40;99.90;12.40;100369.00;;;;4982919;27;109533;-67
2024/04/07 02:29:13;;;;;;;1.97;1.77;;;12.40;99.90;12.40;100374.00;;;;4987135;27;85732;-64
2024/04/07 02:31:39;;;;;;;2.50;1.90;;;12.40;99.90;12.50;100364.00;;;;4977785;27;102002;-64
2024/04/07 02:34:04;;;;;;;4.23;1.70;;;12.50;99.90;12.60;100371.00;;;;4969885;27;82813;-64
2024/04/07 02:36:31;;;;;;;6.13;1.40;;;12.60;99.90;12.70;100375.00;;;;4987492;27;108041;-65
2024/04/07 02:38:56;;;;;;;1.87;1.50;;;12.70;99.90;12.80;100366.00;;;;4976436;27;83302;-65
2024/04/07 02:41:22;;;;;;;2.00;1.80;;;12.80;99.90;12.90;100374.00;;;;4989778;27;90228;-65
2024/04/07 02:43:49;;;;;;;2.03;1.83;;;12.90;99.90;12.90;100363.00;;;;4987414;27;102591;-65
2024/04/07 02:48:59;;;;;;;2.20;1.70;;;13.00;99.90;13.00;100377.00;;;;4988943;27;83040;-66
2024/04/07 02:51:24;;;;;;;1.37;1.27;;;13.00;99.90;13.00;100367.00;;;;4987487;27;111247;-66
2024/04/07 02:53:50;;;;;;;2.03;1.80;;;13.00;99.90;13.00;100369.00;;;;4988246;27;83839;-64
2024/04/07 02:56:16;;;;;;;3.60;2.07;;;13.00;99.90;13.00;100364.00;;;;4988400;27;110501;-64
2024/04/07 02:58:43;;;;;;;4.97;2.23;;;13.00;99.90;13.00;100362.00;;;;4989784;27;112659;-64
2024/04/07 03:01:08;;;;;;;4.13;1.93;;;13.00;99.90;12.90;100366.00;;;;4989307;27;82956;-65
2024/04/07 03:03:34;;;;;;;1.70;1.60;;;13.00;99.90;12.90;100358.00;;;;4987038;27;83163;-65
2024/04/07 03:06:08;;;;;;;2.73;1.77;;;12.90;99.90;12.80;100363.00;;;;4978869;27;101386;-67
2024/04/07 03:08:37;;;;;;;2.60;1.90;;;12.90;99.90;12.70;100357.00;;;;4966818;28;83339;-65
2024/04/07 03:11:05;;;;;;;2.90;1.90;;;12.80;99.90;12.70;100364.00;;;;4985660;27;111836;-65
2024/04/07 03:13:32;;;;;;;6.60;2.20;;;12.70;99.90;12.60;100373.00;;;;4987335;27;82997;-65
2024/04/07 03:15:58;;;;;;;4.97;2.03;;;12.70;99.90;12.60;100359.00;;;;4977447;27;83045;-65
2024/04/07 03:18:23;;;;;;;2.40;2.20;;;12.60;99.90;12.50;100364.00;;;;4987706;27;84059;-65
2024/04/07 03:20:49;;;;;;;3.63;2.27;;;12.60;99.90;12.50;100352.00;;;;4988128;27;113657;-65
2024/04/07 03:23:15;;;;;;;3.10;2.10;;;12.50;99.90;12.40;100361.00;;;;4987168;27;104677;-65
2024/04/07 03:25:41;;;;;;;2.70;1.90;;;12.50;99.90;12.40;100354.00;;;;4989654;27;108806;-65
2024/04/07 03:28:07;;;;;;;1.80;1.60;;;12.40;99.90;12.30;100358.00;;;;4989653;27;83231;-65
2024/04/07 03:30:34;;;;;;;2.37;1.80;;;12.40;99.90;12.30;100353.00;;;;4986300;27;85138;-65
2024/04/07 03:33:01;;;;;;;2.47;2.03;;;12.30;99.90;12.20;100355.00;;;;4989290;27;82969;-65
2024/04/07 03:35:28;;;;;;;4.17;1.93;;;12.30;99.90;12.20;100358.00;;;;4989359;27;84019;-65
2024/04/07 03:37:53;;;;;;;3.30;1.87;;;12.30;99.90;12.10;100352.00;;;;4989574;27;82673;-65
2024/04/07 03:40:19;;;;;;;2.70;1.93;;;12.20;99.90;12.10;100345.00;;;;4985754;27;113038;-65
2024/04/07 03:42:45;;;;;;;2.20;1.63;;;12.10;99.90;12.00;100342.00;;;;4986587;27;111377;-65
2024/04/07 03:45:11;;;;;;;3.87;2.30;;;12.10;99.90;12.00;100351.00;;;;4990056;27;82698;-65
2024/04/07 03:47:37;;;;;;;3.63;2.43;;;12.00;99.90;11.90;100348.00;;;;4986717;27;83871;-65
2024/04/07 03:50:03;;;;;;;1.93;1.80;;;12.00;99.90;11.90;100353.00;;;;4990358;27;83967;-65
2024/04/07 03:52:29;;;;;;;3.37;2.33;;;12.00;99.90;11.80;100353.00;;;;4986635;27;82725;-65
2024/04/07 03:54:55;;;;;;;3.50;2.43;;;11.90;99.90;11.80;100346.00;;;;4989271;27;109664;-66
2024/04/07 03:57:20;;;;;;;2.63;1.80;;;11.90;99.90;11.70;100349.00;;;;4987974;27;113440;-65
2024/04/07 03:59:46;;;;;;;3.53;1.80;;;11.80;99.90;11.70;100340.00;;;;4988909;27;98314;-65
2024/04/07 04:02:21;;;;;;;2.40;2.20;;;12.00;99.90;11.60;100344.00;;;;4979689;27;111035;-65
2024/04/07 04:05:02;;;;;;;2.03;1.83;;;11.70;99.90;11.60;100347.00;;;;4988385;27;101453;-65
2024/04/07 04:07:30;;;;;;;2.50;2.30;;;11.70;99.90;11.50;100336.00;;;;4981987;27;84518;-66
2024/04/07 04:09:58;;;;;;;2.37;1.80;;;11.60;99.90;11.50;100342.00;;;;4971268;27;84295;-65
2024/04/07 04:12:26;;;;;;;2.93;2.03;;;11.60;99.90;11.50;100335.00;;;;4988750;27;100232;-66
2024/04/07 04:14:53;;;;;;;2.70;1.60;;;11.50;99.90;11.40;100343.00;;;;4992016;27;83124;-65
2024/04/07 04:17:19;;;;;;;1.73;1.50;;;11.50;99.90;11.40;100348.00;;;;4983247;27;106133;-65
2024/04/07 04:19:45;;;;;;;3.10;2.57;;;11.50;99.90;11.40;100343.00;;;;4979478;27;102466;-65
2024/04/07 04:22:11;;;;;;;2.20;1.97;;;11.40;99.90;11.30;100352.00;;;;4986390;27;110515;-65
2024/04/07 04:24:37;;;;;;;6.03;2.67;;;11.40;99.90;11.30;100350.00;;;;4970605;28;100457;-65
2024/04/07 04:27:03;;;;;;;3.07;2.43;;;11.40;99.90;11.30;100356.00;;;;4981094;27;83100;-66
2024/04/07 04:29:33;;;;;;;4.40;2.67;;;11.40;99.90;11.30;100361.00;;;;4974871;27;82631;-65
2024/04/07 04:32:03;;;;;;;2.60;2.23;;;11.30;99.90;11.20;100358.00;;;;4973850;27;83459;-67
2024/04/07 04:34:32;;;;;;;2.80;2.07;;;11.30;99.90;11.20;100361.00;;;;4976273;27;98434;-66
2024/04/07 04:36:58;;;;;;;3.63;2.70;;;11.30;99.90;11.20;100363.00;;;;4986797;27;83078;-66
2024/04/07 04:39:24;;;;;;;1.90;1.80;;;11.30;99.90;11.20;100366.00;;;;4985457;27;111931;-66
2024/04/07 04:41:49;;;;;;;3.13;2.37;;;11.20;99.90;11.20;100354.00;;;;4987254;27;106445;-66
2024/04/07 04:44:17;;;;;;;2.57;2.13;;;11.20;99.90;11.10;100368.00;;;;4988694;27;108534;-66
2024/04/07 04:46:45;;;;;;;3.00;2.00;;;11.20;99.90;11.10;100365.00;;;;4987048;27;83084;-66
2024/04/07 04:49:15;;;;;;;2.23;2.03;;;11.20;99.90;11.10;100366.00;;;;4986483;27;101650;-65
2024/04/07 04:51:41;;;;;;;4.17;2.67;;;11.20;99.90;11.10;100369.00;;;;4987823;27;82771;-65
2024/04/07 04:54:07;;;;;;;3.13;1.97;;;11.20;99.90;11.10;100374.00;;;;4987231;27;82897;-65
2024/04/07 04:56:33;;;;;;;2.83;1.80;;;11.20;99.90;11.10;100373.00;;;;4978551;27;113553;-65
2024/04/07 04:58:59;;;;;;;4.07;2.63;;;11.20;99.90;11.20;100366.00;;;;4982816;27;83421;-66
2024/04/07 05:01:26;;;;;;;2.23;1.77;;;11.20;99.90;11.20;100373.00;;;;4988313;27;83311;-66
2024/04/07 05:03:52;;;;;;;2.20;2.00;;;11.20;99.90;11.20;100373.00;;;;4988220;27;82697;-66
2024/04/07 05:06:19;;;;;;;3.47;2.33;;;11.20;99.90;11.20;100373.00;;;;4985845;27;83652;-67
2024/04/07 05:08:45;;;;;;;2.47;2.27;;;11.30;99.90;11.30;100382.00;;;;4989836;27;83679;-66
2024/04/07 05:11:11;;;;;;;2.77;2.50;;;11.30;99.90;11.30;100374.00;;;;4985883;27;100915;-66
2024/04/07 05:13:37;;;;;;;3.17;2.20;;;11.30;99.90;11.30;100377.00;;;;4987964;27;82122;-66
2024/04/07 05:16:03;;;;;;;2.73;2.33;;;11.40;99.90;11.30;100368.00;;;;4985979;27;92233;-66
2024/04/07 05:18:30;;;;;;;3.10;2.60;;;11.40;99.90;11.40;100355.00;;;;4982892;27;104017;-66
2024/04/07 05:20:56;;;;;;;2.60;2.37;;;11.40;99.90;11.40;100351.00;;;;4983362;27;102187;-66
2024/04/07 05:23:22;;;;;;;3.43;2.60;;;11.40;99.90;11.40;100353.00;;;;4987519;27;84267;-67
2024/04/07 05:25:48;;;;;;;3.20;2.30;;;11.50;99.90;11.50;100353.00;;;;4988300;27;83311;-66
2024/04/07 05:28:14;;;;;;;4.77;2.77;;;11.50;99.90;11.50;100351.00;;;;4986588;27;112183;-66
2024/04/07 05:30:39;;;;;;;3.43;2.70;;;11.60;99.90;11.60;100347.00;;;;4985213;27;110125;-66
2024/04/07 05:33:06;;;;;;;5.43;3.00;;;11.60;99.90;11.70;100355.00;;;;4985882;27;108410;-66
2024/04/07 05:35:35;;;;;;;4.93;3.17;;;11.70;99.90;11.80;100355.00;;;;4987998;27;84069;-66
2024/04/07 05:38:02;;;;;;;4.90;3.23;;;11.80;99.90;11.90;100359.00;;;;4986476;27;103795;-66
2024/04/07 05:40:27;;;;;;;3.70;2.80;;;11.90;99.90;12.10;100354.00;;;;4986864;27;82745;-66
2024/04/07 05:42:54;;;;;;;3.23;2.77;;;12.00;99.90;12.20;100353.00;;;;4983976;27;108457;-66
2024/04/07 05:45:21;;;;;;;3.20;2.83;;;12.10;99.90;12.40;100351.00;;;;4985551;27;102896;-66
2024/04/07 05:47:51;;;;;;;4.47;2.67;;;12.30;99.90;12.60;100347.00;;;;4978806;27;84478;-66
2024/04/07 05:50:17;;;;;;;5.80;3.17;;;12.50;99.90;12.80;100354.00;;;;4969027;27;83045;-66
2024/04/07 05:52:43;;;;;;;2.90;2.33;;;12.70;99.90;13.00;100344.00;;;;4984551;27;108905;-66
2024/04/07 05:55:11;;;;;;;2.80;1.80;;;12.90;99.90;13.30;100357.00;;;;4986325;27;83656;-65
2024/04/07 05:57:38;;;;;;;3.67;2.27;;;13.20;99.90;13.50;100353.00;;;;4985794;27;83121;-66
2024/04/07 06:00:08;;;;;;;4.57;2.63;;;13.40;99.90;13.80;100353.00;;;;4985654;27;82885;-66
2024/04/07 06:02:37;;;;;;;7.50;2.93;;;13.60;99.90;14.10;100364.00;;;;4972136;28;81996;-66
2024/04/07 06:05:03;;;;;;;3.25;2.67;;;13.90;99.90;14.30;100361.00;;;;4986803;27;91441;-66
2024/04/07 06:07:29;;;;;;;3.42;2.10;;;14.00;99.90;14.60;100358.00;;;;4986238;27;106158;-66
2024/04/07 06:09:55;;;;;;;3.42;2.22;;;14.40;99.90;14.80;100358.00;;;;4989101;27;109983;-65
2024/04/07 06:12:22;;;;;;;2.20;2.00;;;14.70;99.90;15.10;100360.00;;;;4990298;27;89421;-66
2024/04/07 06:14:47;;;;;;;2.22;1.98;;;14.90;99.90;15.30;100368.00;;;;4991039;27;101016;-67
2024/04/07 06:17:14;;;;;;;2.30;1.98;;;15.10;99.90;15.50;100365.00;;;;4989936;27;112216;-65
2024/04/07 06:19:40;;;;;;;2.38;2.08;;;15.30;99.90;15.70;100369.00;;;;4976679;27;103866;-66
2024/04/07 06:22:05;;;;;;;3.10;2.15;;;15.50;99.90;15.90;100363.00;;;;4986979;27;99824;-66
2024/04/07 06:24:31;;;;;;;2.33;2.13;;;15.80;99.90;16.00;100371.00;;;;4982325;27;118316;-65
2024/04/07 06:26:57;;;;;;;4.72;2.22;;;15.90;99.90;16.20;100383.00;;;;4967994;27;107084;-65
2024/04/07 06:29:23;;;;;;;2.88;2.38;;;16.10;99.90;16.40;100388.00;;;;4983312;27;110827;-66
2024/04/07 06:31:49;;;;;;;4.65;2.45;;;16.30;99.90;16.60;100389.00;;;;4982443;27;87983;-66
2024/04/07 06:34:15;;;;;;;4.78;2.92;;;16.50;99.90;16.80;100378.00;;;;4986852;27;107297;-66
2024/04/07 06:36:40;;;;;;;4.82;2.10;;;16.70;99.90;17.00;100389.00;;;;4965239;28;88244;-66
2024/04/07 06:39:07;;;;;;;3.20;2.22;;;16.80;99.90;17.20;100388.00;;;;4980888;27;109886;-65
2024/04/07 06:41:34;;;;;;;4.88;3.00;;;17.10;99.90;17.50;100381.00;;;;4976423;27;88197;-66
2024/04/07 06:44:01;;;;;;;1.80;1.42;;;17.30;99.90;17.80;100387.00;;;;4981562;27;89183;-66
2024/04/07 06:46:27;;;;;;;3.92;1.98;;;17.60;99.90;18.10;100380.00;;;;4982088;27;87992;-66
2024/04/07 06:48:53;;;;;;;1.95;1.15;;;17.90;99.90;18.50;100382.00;;;;4980208;27;110840;-66
2024/04/07 06:51:19;;;;;;;3.20;1.23;;;18.30;99.90;18.90;100384.00;;;;4984809;27;99866;-66
2024/04/07 06:53:45;;;;;;;1.65;1.20;;;18.70;99.90;19.30;100394.00;;;;4983525;27;115882;-66
2024/04/07 06:56:10;;;;;;;1.38;1.25;;;19.00;99.90;19.70;100392.00;;;;4983054;27;115637;-66
2024/04/07 06:58:36;;;;;;;0.80;0.68;;;19.40;99.90;20.00;100398.00;;;;4982793;27;110642;-66
2024/04/07 07:01:02;;;;;;;0.88;0.85;;;19.70;98.40;20.40;100405.00;;;;4985020;27;108676;-66
2024/04/07 07:03:27;;;;;;;9.45;1.35;;;20.10;97.00;20.70;100401.00;;;;4980994;27;110751;-67
2024/04/07 07:05:53;;;;;;;2.22;0.93;;;20.40;95.80;21.00;100417.00;;;;4980505;28;118388;-66
2024/04/07 07:08:19;;;;;;;0.82;0.73;;;20.70;95.80;21.40;100430.00;;;;4979726;27;109556;-66
2024/04/07 07:11:01;;;;;;;0.57;0.55;;;21.10;95.40;21.80;100441.00;;;;4981543;27;88891;-67
2024/04/07 07:13:29;;;;;;;1.52;1.20;;;21.50;93.80;22.10;100454.00;;;;4969563;28;88738;-66
2024/04/07 07:15:55;;;;;;;4.35;0.90;;;21.80;93.10;22.40;100475.00;;;;4982689;27;108105;-66
2024/04/07 07:18:21;;;;;;;0.75;0.75;;;22.10;92.20;22.80;100491.00;;;;4964617;27;87954;-66
2024/04/07 07:20:48;;;;;;;1.20;0.90;;;22.30;91.80;23.10;100497.00;;;;4980891;27;109905;-66
2024/04/07 07:23:14;;;;;;;0.98;0.70;;;22.80;91.30;23.40;100497.00;;;;4983531;27;89811;-66
2024/04/07 07:25:42;;;;;;;1.27;0.80;;;23.10;90.30;23.60;100502.00;;;;4979137;27;112069;-67
2024/04/07 07:28:07;;;;;;;2.88;1.35;;;23.30;87.00;23.80;100514.00;;;;4985511;27;87759;-66
2024/04/07 07:30:35;;;;;;;1.23;0.70;;;23.60;86.50;24.00;100523.00;;;;4980841;27;108467;-66
2024/04/07 07:33:05;;;;;;;1.80;1.13;;;23.80;84.00;24.20;100540.00;;;;4981776;28;91767;-67
2024/04/07 07:35:30;;;;;;;1.42;0.65;;;24.00;83.80;24.30;100559.00;;;;4985318;27;88881;-66
2024/04/07 07:37:56;;;;;;;0.75;0.70;;;24.10;82.30;24.50;100532.00;;;;4987380;27;88787;-66
2024/04/07 07:40:22;;;;;;;1.23;0.93;;;24.20;80.20;24.50;100506.00;;;;4983799;27;88512;-66
2024/04/07 07:42:48;;;;;;;1.10;0.93;;;24.30;77.00;24.50;100528.00;;;;4982485;27;117228;-66
2024/04/07 07:45:16;;;;;;;0.77;0.68;;;24.30;77.00;24.50;100541.00;;;;4989790;27;87872;-66
2024/04/07 07:47:42;;;;;;;1.08;0.70;;;24.40;75.20;24.60;100547.00;;;;4983669;27;88885;-66
2024/04/07 07:50:08;;;;;;;1.13;0.73;;;24.40;75.70;24.60;100550.00;;;;4982955;27;99290;-65
2024/04/07 07:52:34;;;;;;;1.58;0.90;;;24.40;73.90;24.70;100549.00;;;;4980785;27;117426;-69
2024/04/07 07:54:59;;;;;;;1.17;0.82;;;24.50;71.30;24.70;100552.00;;;;4980919;27;117463;-66
2024/04/07 07:57:25;;;;;;;1.52;0.93;;;24.50;71.40;24.80;100557.00;;;;4982947;27;108400;-66
2024/04/07 07:59:51;;;;;;;1.10;0.98;;;24.60;72.10;24.90;100559.00;;;;4975101;27;107780;-66
2024/04/07 08:02:16;;;;;;;0.55;0.55;;;24.70;71.20;25.00;100572.00;;;;4980166;27;117546;-67
2024/04/07 08:04:42;;;;;;;0.85;0.80;;;24.80;70.50;25.00;100571.00;;;;4984091;27;116323;-67
2024/04/07 08:07:07;;;;;;;1.38;0.80;;;24.80;70.20;25.20;100571.00;;;;4983822;27;88206;-66
2024/04/07 08:09:33;;;;;;;1.40;0.90;;;25.00;69.80;25.20;100568.00;;;;4977759;27;109418;-66
2024/04/07 08:11:59;;;;;;;0.80;0.60;;;25.00;66.70;25.20;100577.00;;;;4977245;27;117992;-65
2024/04/07 08:14:25;;;;;;;1.50;1.05;;;25.00;65.60;25.20;100572.00;;;;4980265;27;119398;-67
2024/04/07 08:16:51;;;;;;;1.35;0.70;;;25.00;66.00;25.20;100572.00;;;;4978332;27;115794;-66
2024/04/07 08:19:17;;;;;;;1.42;0.90;;;25.10;64.70;25.20;100573.00;;;;4980775;27;108614;-66
2024/04/07 08:21:43;;;;;;;0.85;0.40;;;25.10;64.90;25.30;100574.00;;;;4982559;27;117390;-66
2024/04/07 08:24:10;;;;;;;2.92;0.70;;;25.10;62.30;25.20;100572.00;;;;4981959;27;111475;-67
2024/04/07 08:26:35;;;;;;;1.27;0.73;;;25.00;61.20;25.20;100575.00;;;;4983307;27;87946;-67
2024/04/07 08:29:01;;;;;;;2.30;0.77;;;25.00;60.90;25.20;100589.00;;;;4982927;27;108430;-68
2024/04/07 08:31:27;;;;;;;1.35;0.90;;;25.00;60.30;25.20;100590.00;;;;4979570;27;116340;-68
2024/04/07 08:33:52;;;;;;;1.10;0.50;;;25.00;60.40;25.30;100594.00;;;;4984258;27;116177;-68
2024/04/07 08:36:18;;;;;;;0.77;0.60;;;25.10;60.90;25.40;100599.00;;;;4971844;27;110961;-68
2024/04/07 08:38:44;;;;;;;0.52;0.30;;;25.20;60.50;25.50;100601.00;;;;4983804;27;88216;-67
2024/04/07 08:41:14;;;;;;;1.95;0.98;;;25.30;59.60;25.60;100594.00;;;;4981232;27;118582;-67
2024/04/07 08:43:41;;;;;;;0.95;0.65;;;25.40;58.90;25.70;100593.00;;;;4980289;27;88091;-68
2024/04/07 08:46:17;;;;;;;1.20;0.90;;;25.50;58.10;25.90;100611.00;;;;4981377;27;88098;-68
2024/04/07 08:48:50;;;;;;;0.40;0.40;;;25.50;58.80;26.10;100604.00;;;;4966855;27;92591;-67
2024/04/07 08:51:17;;;;;;;5.57;0.90;;;25.80;58.20;26.20;100614.00;;;;4982292;27;89203;-68
2024/04/07 08:53:44;;;;;;;0.80;0.57;;;26.20;56.20;26.30;100605.00;;;;4983000;27;87874;-68
2024/04/07 08:56:13;;;;;;;1.17;1.08;;;26.10;54.80;26.40;100611.00;;;;4983325;27;87827;-68
2024/04/07 08:58:40;;;;;;;0.65;0.63;;;26.20;55.30;26.60;100595.00;;;;4983078;27;88073;-67
2024/04/07 09:01:14;;;;;;;4.10;0.85;;;26.30;55.70;26.80;100598.00;;;;4981564;27;90074;-68
2024/04/07 09:03:41;;;;;;;0.80;0.80;;;26.50;55.30;27.00;100595.00;;;;4967487;28;108648;-68
2024/04/07 09:06:07;;;;;;;0.55;0.52;;;26.70;53.20;27.10;100605.00;;;;4981499;27;109582;-69
2024/04/07 09:08:32;;;;;;;1.05;0.60;;;26.80;52.90;27.10;100597.00;;;;4966710;27;107895;-67
2024/04/07 09:10:58;;;;;;;1.77;0.98;;;26.90;51.30;27.20;100598.00;;;;4982887;27;88344;-67
2024/04/07 09:13:24;;;;;;;0.73;0.63;;;27.40;50.80;27.40;100607.00;;;;4961342;27;117140;-68
2024/04/07 09:15:50;;;;;;;1.30;1.08;;;27.00;50.30;27.50;100597.00;;;;4977289;27;88101;-69
2024/04/07 09:18:21;;;;;;;0.68;0.43;;;27.20;49.60;27.70;100612.00;;;;4972402;27;99827;-69
2024/04/07 09:20:47;;;;;;;0.70;0.52;;;27.40;49.70;27.80;100620.00;;;;4978725;27;88812;-70
2024/04/07 09:23:13;;;;;;;2.83;0.65;;;27.50;49.60;28.00;100612.00;;;;4961662;27;115084;-69
2024/04/07 09:25:39;;;;;;;1.15;0.75;;;27.70;49.60;28.20;100608.00;;;;4958096;28;88925;-69
2024/04/07 09:28:05;;;;;;;1.42;0.65;;;27.90;47.80;28.20;100612.00;;;;4973151;27;97830;-69
2024/04/07 09:30:30;;;;;;;3.40;0.90;;;27.90;48.30;28.40;100606.00;;;;4983452;27;88969;-67
2024/04/07 09:32:57;;;;;;;0.57;0.57;;;28.00;47.70;28.40;100602.00;;;;4981109;27;107048;-68
2024/04/07 09:35:23;;;;;;;2.33;0.98;;;28.10;45.70;28.40;100605.00;;;;4984795;27;100229;-67
2024/04/07 09:37:49;;;;;;;0.47;0.47;;;28.10;45.70;28.30;100603.00;;;;4980369;27;100186;-68
2024/04/07 09:40:14;;;;;;;0.40;0.40;;;28.10;44.80;28.30;100597.00;;;;4981914;27;87847;-68
2024/04/07 09:42:40;;;;;;;2.42;0.70;;;28.00;44.20;28.20;100601.00;;;;4979423;27;107780;-68
2024/04/07 09:45:11;;;;;;;0.52;0.40;;;28.20;44.60;28.10;100593.00;;;;4981408;27;88433;-68
2024/04/07 09:47:39;;;;;;;1.38;0.43;;;27.90;44.80;28.00;100604.00;;;;4980480;27;88318;-68
2024/04/07 09:50:17;;;;;;;0.93;0.30;;;27.80;45.20;28.00;100598.00;;;;4978009;27;89275;-68
2024/04/07 09:52:51;;;;;;;1.35;0.55;;;27.80;45.00;27.90;100609.00;;;;4981197;27;88065;-70
2024/04/07 09:55:17;;;;;;;0.68;0.40;;;27.70;44.70;27.90;100605.00;;;;4960616;27;89257;-69
2024/04/07 09:57:44;;;;;;;0.50;0.45;;;27.70;44.40;28.00;100605.00;;;;4979792;27;88946;-69
2024/04/07 10:00:12;;;;;;;2.15;0.90;;;27.70;45.30;28.10;100621.00;;;;4975537;27;118344;-69
2024/04/07 10:02:39;;;;;;;2.08;0.65;;;27.80;45.00;28.30;100616.00;;;;4954111;27;110210;-69
2024/04/07 10:05:07;;;;;;;0.50;0.50;;;27.90;45.40;28.50;100622.00;;;;4963882;27;99066;-68
2024/04/07 10:07:35;;;;;;;2.85;0.75;;;28.10;45.50;28.70;100617.00;;;;4980164;27;102359;-68
2024/04/07 10:10:02;;;;;;;0.75;0.65;;;28.30;45.00;28.80;100616.00;;;;4979461;27;102049;-69
2024/04/07 10:12:29;;;;;;;1.75;0.60;;;28.40;44.50;29.00;100618.00;;;;4947901;27;98824;-69
2024/04/07 10:14:55;;;;;;;0.57;0.40;;;28.60;45.20;29.20;100626.00;;;;4977199;27;88945;-69
2024/04/07 10:17:21;;;;;;;1.75;0.50;;;28.70;44.10;29.40;100623.00;;;;4946585;28;111293;-67
2024/04/07 10:19:49;;;;;;;0.93;0.60;;;28.90;44.40;29.60;100635.00;;;;4977388;27;102215;-69
2024/04/07 10:22:17;;;;;;;0.30;0.20;;;29.10;44.00;29.70;100628.00;;;;4978043;27;88149;-68
2024/04/07 10:24:47;;;;;;;0.50;0.30;;;29.30;43.20;29.70;100640.00;;;;4948828;28;88397;-69
2024/04/07 10:27:13;;;;;;;0.60;0.60;;;29.30;42.40;29.80;100634.00;;;;4961159;27;88083;-69
2024/04/07 10:29:40;;;;;;;3.72;0.60;;;29.30;42.10;29.90;100639.00;;;;4980789;27;117261;-70
2024/04/07 10:32:33;;;;;;;0.73;0.40;;;29.50;42.40;30.00;100649.00;;;;4981036;27;88168;-69
2024/04/07 10:35:08;;;;;;;0.50;0.50;;;29.70;41.80;30.00;100644.00;;;;4971883;27;90094;-69
2024/04/07 10:37:37;;;;;;;0.40;0.38;;;29.60;40.60;30.00;100644.00;;;;4971287;27;90944;-69
2024/04/07 10:40:08;;;;;;;0.47;0.47;;;29.70;41.30;30.00;100639.00;;;;4974491;27;89840;-70
2024/04/07 10:42:38;;;;;;;3.15;0.55;;;29.70;41.30;30.00;100649.00;;;;4979193;27;88100;-70
2024/04/07 10:45:06;;;;;;;6.90;0.90;;;29.70;40.50;29.90;100647.00;;;;4980838;27;87940;-69